createdAt,value
2023-04-02T00:00:27.063Z,135.15
2023-04-02T00:01:27.170Z,134.62
2023-04-02T00:02:27.257Z,132.58
2023-04-02T00:03:27.288Z,133.58
2023-04-02T00:04:27.231Z,134.10
2023-04-02T00:05:27.239Z,134.65
2023-04-02T00:06:27.271Z,134.46
2023-04-02T00:07:27.325Z,133.31
2023-04-02T00:08:27.377Z,132.36
2023-04-02T00:09:27.400Z,131.66
2023-04-02T00:10:27.423Z,131.74
2023-04-02T00:11:27.450Z,130.06
2023-04-02T00:12:27.475Z,131.21
2023-04-02T00:13:27.524Z,131.06
2023-04-02T00:14:27.512Z,131.93
2023-04-02T00:15:27.573Z,129.70
2023-04-02T00:16:27.603Z,130.12
2023-04-02T00:17:27.658Z,130.79
2023-04-02T00:18:27.742Z,130.40
2023-04-02T00:19:27.708Z,128.99
2023-04-02T00:20:27.718Z,129.82
2023-04-02T00:21:27.775Z,130.07
2023-04-02T00:22:27.788Z,130.02
2023-04-02T00:23:27.795Z,131.35
2023-04-02T00:24:27.852Z,130.18
2023-04-02T00:25:27.929Z,130.48
2023-04-02T00:26:27.915Z,129.79
2023-04-02T00:27:27.959Z,127.63
2023-04-02T00:28:27.998Z,129.99
2023-04-02T00:29:28.043Z,131.22
2023-04-02T00:30:28.083Z,130.69
2023-04-02T00:31:28.143Z,130.52
2023-04-02T00:32:28.186Z,131.21
2023-04-02T00:33:28.186Z,129.39
2023-04-02T00:34:28.220Z,128.54
2023-04-02T00:35:28.274Z,129.21
2023-04-02T00:36:28.314Z,129.06
2023-04-02T00:37:28.401Z,130.09
2023-04-02T00:38:28.409Z,131.88
2023-04-02T00:39:28.540Z,132.84
2023-04-02T00:40:28.550Z,133.52
2023-04-02T00:41:28.618Z,133.03
2023-04-02T00:42:28.640Z,132.49
2023-04-02T00:43:28.705Z,132.57
2023-04-02T00:44:28.766Z,133.03
2023-04-02T00:45:28.821Z,131.01
2023-04-02T00:46:28.861Z,131.81
2023-04-02T00:47:28.931Z,130.59
2023-04-02T00:48:28.974Z,129.43
2023-04-02T00:49:28.988Z,130.19
2023-04-02T00:50:29.097Z,129.99
2023-04-02T00:51:29.159Z,131.14
2023-04-02T00:52:29.199Z,129.62
2023-04-02T00:53:29.235Z,131.50
2023-04-02T00:54:29.300Z,130.41
2023-04-02T00:55:29.317Z,129.56
2023-04-02T00:56:29.374Z,130.09
2023-04-02T00:57:29.523Z,130.46
2023-04-02T00:58:29.503Z,128.73
2023-04-02T00:59:29.504Z,129.14
2023-04-02T01:00:29.562Z,126.74
2023-04-02T01:01:29.629Z,130.26
2023-04-02T01:02:29.778Z,126.74
2023-04-02T01:03:29.980Z,129.18
2023-04-02T01:04:29.756Z,128.39
2023-04-02T01:05:29.783Z,126.11
2023-04-02T01:06:29.856Z,126.79
2023-04-02T01:07:29.892Z,126.43
2023-04-02T01:08:29.923Z,125.46
2023-04-02T01:09:29.943Z,125.92
2023-04-02T01:10:29.994Z,126.65
2023-04-02T01:11:30.048Z,127.31
2023-04-02T01:12:30.050Z,128.18
2023-04-02T01:13:30.093Z,125.69
2023-04-02T01:14:30.123Z,126.93
2023-04-02T01:15:30.250Z,128.70
2023-04-02T01:16:30.396Z,126.87
2023-04-02T01:17:30.336Z,127.34
2023-04-02T01:18:30.982Z,126.16
2023-04-02T01:19:30.373Z,127.19
2023-04-02T01:20:30.362Z,127.83
2023-04-02T01:21:30.437Z,126.42
2023-04-02T01:22:30.486Z,128.81
2023-04-02T01:23:30.502Z,126.50
2023-04-02T01:24:30.563Z,127.35
2023-04-02T01:25:30.604Z,126.49
2023-04-02T01:26:30.641Z,126.95
2023-04-02T01:27:30.684Z,125.65
2023-04-02T01:28:30.730Z,126.64
2023-04-02T01:29:30.774Z,127.42
2023-04-02T01:30:30.776Z,127.69
2023-04-02T01:31:30.935Z,126.67
2023-04-02T01:32:30.938Z,128.32
2023-04-02T01:33:30.935Z,127.56
2023-04-02T01:34:30.977Z,128.37
2023-04-02T01:35:30.999Z,129.97
2023-04-02T01:36:31.019Z,128.99
2023-04-02T01:37:31.068Z,126.16
2023-04-02T01:38:31.096Z,128.30
2023-04-02T01:39:31.142Z,127.55
2023-04-02T01:40:31.207Z,127.26
2023-04-02T01:41:31.226Z,126.59
2023-04-02T01:42:31.252Z,127.21
2023-04-02T01:43:31.305Z,125.15
2023-04-02T01:44:31.334Z,126.82
2023-04-02T01:45:31.383Z,126.28
2023-04-02T01:46:31.427Z,126.77
2023-04-02T01:47:31.493Z,127.57
2023-04-02T01:48:31.486Z,126.27
2023-04-02T01:49:31.507Z,127.08
2023-04-02T01:50:31.647Z,126.69
2023-04-02T01:51:31.616Z,126.50
2023-04-02T01:52:31.607Z,127.17
2023-04-02T01:53:31.701Z,125.08
2023-04-02T01:54:31.703Z,125.50
2023-04-02T01:55:31.857Z,127.65
2023-04-02T01:56:31.782Z,128.28
2023-04-02T01:57:31.940Z,127.96
2023-04-02T01:58:31.914Z,127.37
2023-04-02T01:59:31.893Z,126.45
2023-04-02T02:00:31.991Z,124.57
2023-04-02T02:01:31.982Z,124.26
2023-04-02T02:02:32.107Z,125.89
2023-04-02T02:03:32.071Z,124.70
2023-04-02T02:04:32.068Z,123.28
2023-04-02T02:05:32.295Z,124.23
2023-04-02T02:06:32.148Z,122.88
2023-04-02T02:07:32.198Z,123.24
2023-04-02T02:08:32.245Z,121.78
2023-04-02T02:09:32.253Z,122.23
2023-04-02T02:10:32.306Z,122.92
2023-04-02T02:11:32.360Z,122.41
2023-04-02T02:12:32.404Z,122.19
2023-04-02T02:13:32.433Z,123.28
2023-04-02T02:14:32.483Z,121.49
2023-04-02T02:15:32.699Z,121.91
2023-04-02T02:16:32.549Z,123.11
2023-04-02T02:17:32.600Z,124.43
2023-04-02T02:18:32.609Z,127.04
2023-04-02T02:19:32.638Z,127.78
2023-04-02T02:20:32.664Z,129.10
2023-04-02T02:21:32.732Z,128.32
2023-04-02T02:22:32.778Z,126.92
2023-04-02T02:23:32.818Z,127.94
2023-04-02T02:24:32.851Z,128.96
2023-04-02T02:25:33.067Z,130.29
2023-04-02T02:26:32.937Z,130.52
2023-04-02T02:27:32.972Z,130.31
2023-04-02T02:28:33.009Z,131.99
2023-04-02T02:29:33.061Z,132.27
2023-04-02T02:30:33.102Z,132.08
2023-04-02T02:31:33.235Z,130.86
2023-04-02T02:32:33.234Z,131.74
2023-04-02T02:33:33.244Z,132.93
2023-04-02T02:34:33.362Z,130.78
2023-04-02T02:35:33.701Z,132.66
2023-04-02T02:36:33.345Z,131.53
2023-04-02T02:37:33.448Z,132.59
2023-04-02T02:38:33.444Z,130.81
2023-04-02T02:39:33.456Z,133.33
2023-04-02T02:40:33.468Z,132.16
2023-04-02T02:41:33.511Z,132.94
2023-04-02T02:42:33.568Z,131.33
2023-04-02T02:43:33.585Z,131.90
2023-04-02T02:44:33.602Z,132.70
2023-04-02T02:45:34.038Z,132.65
2023-04-02T02:46:33.695Z,132.68
2023-04-02T02:47:33.765Z,131.72
2023-04-02T02:48:33.774Z,133.39
2023-04-02T02:49:33.828Z,132.66
2023-04-02T02:50:33.878Z,132.89
2023-04-02T02:51:33.862Z,132.51
2023-04-02T02:52:34.005Z,133.56
2023-04-02T02:53:33.967Z,132.97
2023-04-02T02:54:34.000Z,131.53
2023-04-02T02:55:34.362Z,133.27
2023-04-02T02:56:34.100Z,133.67
2023-04-02T02:57:34.231Z,131.06
2023-04-02T02:58:34.177Z,133.05
2023-04-02T02:59:34.204Z,134.12
2023-04-02T03:00:34.236Z,134.63
2023-04-02T03:01:34.348Z,135.17
2023-04-02T03:02:34.354Z,132.39
2023-04-02T03:03:34.709Z,133.37
2023-04-02T03:04:34.376Z,135.17
2023-04-02T03:05:34.580Z,134.56
2023-04-02T03:06:34.449Z,133.40
2023-04-02T03:07:34.519Z,132.94
2023-04-02T03:08:34.518Z,134.25
2023-04-02T03:09:34.597Z,133.98
2023-04-02T03:10:34.615Z,136.08
2023-04-02T03:11:34.643Z,134.99
2023-04-02T03:12:34.679Z,134.93
2023-04-02T03:13:34.718Z,134.14
2023-04-02T03:14:34.739Z,134.17
2023-04-02T03:15:35.075Z,134.66
2023-04-02T03:16:34.827Z,137.43
2023-04-02T03:17:34.863Z,136.43
2023-04-02T03:18:34.880Z,137.41
2023-04-02T03:19:35.005Z,136.30
2023-04-02T03:20:34.988Z,137.48
2023-04-02T03:21:35.020Z,137.23
2023-04-02T03:22:35.058Z,136.76
2023-04-02T03:23:35.062Z,136.72
2023-04-02T03:24:35.105Z,137.86
2023-04-02T03:25:35.308Z,138.14
2023-04-02T03:26:35.170Z,137.19
2023-04-02T03:27:35.210Z,134.85
2023-04-02T03:28:35.258Z,136.18
2023-04-02T03:29:35.271Z,134.57
2023-04-02T03:30:35.355Z,136.05
2023-04-02T03:31:35.400Z,136.72
2023-04-02T03:32:35.476Z,136.26
2023-04-02T03:33:35.431Z,135.98
2023-04-02T03:34:35.490Z,137.24
2023-04-02T03:35:35.670Z,137.94
2023-04-02T03:36:35.537Z,137.09
2023-04-02T03:37:35.598Z,135.97
2023-04-02T03:38:35.693Z,136.30
2023-04-02T03:39:35.657Z,135.36
2023-04-02T03:40:35.747Z,136.97
2023-04-02T03:41:35.752Z,135.60
2023-04-02T03:42:35.786Z,137.13
2023-04-02T03:43:35.839Z,137.06
2023-04-02T03:44:35.819Z,137.65
2023-04-02T03:45:36.050Z,138.00
2023-04-02T03:46:36.018Z,137.15
2023-04-02T03:47:35.956Z,139.85
2023-04-02T03:48:35.987Z,137.96
2023-04-02T03:49:36.018Z,140.43
2023-04-02T03:50:36.020Z,139.06
2023-04-02T03:51:36.075Z,139.63
2023-04-02T03:52:36.110Z,139.82
2023-04-02T03:53:36.146Z,140.79
2023-04-02T03:54:36.167Z,139.26
2023-04-02T03:55:36.539Z,137.15
2023-04-02T03:56:36.274Z,139.84
2023-04-02T03:57:36.296Z,140.31
2023-04-02T03:58:36.322Z,140.56
2023-04-02T03:59:36.381Z,139.49
2023-04-02T04:00:36.416Z,139.95
2023-04-02T04:01:36.515Z,139.36
2023-04-02T04:02:36.517Z,139.52
2023-04-02T04:03:36.617Z,139.59
2023-04-02T04:04:36.581Z,138.89
2023-04-02T04:05:36.774Z,138.80
2023-04-02T04:06:36.645Z,138.12
2023-04-02T04:07:36.718Z,138.55
2023-04-02T04:08:36.741Z,139.54
2023-04-02T04:09:36.790Z,138.46
2023-04-02T04:10:36.804Z,140.40
2023-04-02T04:11:36.843Z,140.36
2023-04-02T04:12:36.905Z,139.44
2023-04-02T04:13:36.920Z,140.40
2023-04-02T04:14:36.960Z,141.52
2023-04-02T04:15:37.323Z,141.38
2023-04-02T04:16:37.063Z,141.35
2023-04-02T04:17:37.110Z,141.59
2023-04-02T04:18:37.124Z,142.18
2023-04-02T04:19:37.141Z,140.78
2023-04-02T04:20:37.195Z,140.32
2023-04-02T04:21:37.236Z,141.64
2023-04-02T04:22:37.260Z,141.15
2023-04-02T04:23:37.289Z,140.82
2023-04-02T04:24:37.349Z,141.16
2023-04-02T04:25:37.557Z,139.96
2023-04-02T04:26:37.444Z,141.18
2023-04-02T04:27:37.541Z,141.39
2023-04-02T04:28:37.497Z,141.55
2023-04-02T04:29:37.564Z,141.55
2023-04-02T04:30:37.591Z,141.87
2023-04-02T04:31:37.641Z,142.09
2023-04-02T04:32:37.741Z,141.76
2023-04-02T04:33:37.688Z,140.91
2023-04-02T04:34:37.743Z,142.30
2023-04-02T04:35:38.412Z,140.89
2023-04-02T04:36:37.818Z,141.75
2023-04-02T04:37:37.874Z,140.83
2023-04-02T04:38:37.928Z,142.85
2023-04-02T04:39:37.978Z,143.11
2023-04-02T04:40:38.008Z,141.66
2023-04-02T04:41:38.031Z,142.38
2023-04-02T04:42:38.107Z,141.98
2023-04-02T04:43:38.148Z,141.79
2023-04-02T04:44:38.168Z,142.16
2023-04-02T04:45:38.259Z,143.53
2023-04-02T04:46:38.293Z,142.47
2023-04-02T04:47:38.331Z,142.93
2023-04-02T04:48:38.365Z,141.22
2023-04-02T04:49:38.396Z,142.23
2023-04-02T04:50:38.413Z,141.84
2023-04-02T04:51:38.469Z,141.94
2023-04-02T04:52:38.516Z,140.92
2023-04-02T04:53:38.547Z,142.44
2023-04-02T04:54:38.618Z,143.12
2023-04-02T04:55:38.665Z,142.34
2023-04-02T04:56:38.677Z,141.32
2023-04-02T04:57:38.757Z,142.19
2023-04-02T04:58:38.758Z,143.07
2023-04-02T04:59:38.824Z,142.95
2023-04-02T05:00:38.856Z,142.02
2023-04-02T05:01:38.900Z,143.87
2023-04-02T05:02:38.946Z,142.95
2023-04-02T05:03:38.937Z,141.98
2023-04-02T05:04:39.066Z,142.73
2023-04-02T05:05:39.045Z,142.69
2023-04-02T05:06:39.086Z,141.99
2023-04-02T05:07:39.124Z,142.63
2023-04-02T05:08:39.176Z,142.08
2023-04-02T05:09:39.231Z,141.15
2023-04-02T05:10:39.232Z,141.68
2023-04-02T05:11:39.278Z,142.77
2023-04-02T05:12:39.348Z,142.92
2023-04-02T05:13:39.344Z,142.51
2023-04-02T05:14:39.402Z,140.54
2023-04-02T05:15:39.662Z,141.52
2023-04-02T05:16:39.533Z,140.02
2023-04-02T05:17:39.550Z,141.62
2023-04-02T05:18:39.535Z,142.67
2023-04-02T05:19:39.547Z,142.35
2023-04-02T05:20:39.588Z,142.36
2023-04-02T05:21:39.672Z,143.41
2023-04-02T05:22:41.307Z,144.36
2023-04-02T05:23:39.705Z,141.66
2023-04-02T05:24:39.727Z,142.35
2023-04-02T05:25:39.783Z,143.65
2023-04-02T05:26:39.849Z,143.86
2023-04-02T05:27:39.867Z,142.07
2023-04-02T05:28:39.897Z,141.98
2023-04-02T05:29:40.032Z,142.14
2023-04-02T05:30:39.984Z,142.41
2023-04-02T05:31:40.128Z,142.28
2023-04-02T05:32:40.082Z,141.27
2023-04-02T05:33:40.099Z,141.11
2023-04-02T05:34:40.118Z,140.37
2023-04-02T05:35:40.199Z,142.40
2023-04-02T05:36:40.199Z,142.76
2023-04-02T05:37:40.264Z,142.40
2023-04-02T05:38:40.318Z,142.69
2023-04-02T05:39:40.346Z,141.76
2023-04-02T05:40:40.388Z,143.38
2023-04-02T05:41:40.450Z,141.35
2023-04-02T05:42:40.482Z,139.90
2023-04-02T05:43:40.492Z,142.49
2023-04-02T05:44:40.539Z,141.31
2023-04-02T05:45:40.577Z,140.11
2023-04-02T05:46:40.631Z,139.79
2023-04-02T05:47:40.661Z,142.69
2023-04-02T05:48:40.709Z,141.73
2023-04-02T05:49:40.690Z,139.90
2023-04-02T05:50:40.768Z,141.11
2023-04-02T05:51:40.815Z,141.73
2023-04-02T05:52:40.847Z,141.20
2023-04-02T05:53:40.867Z,142.98
2023-04-02T05:54:40.922Z,141.93
2023-04-02T05:55:40.965Z,142.78
2023-04-02T05:56:40.967Z,143.73
2023-04-02T05:57:46.874Z,142.63
2023-04-02T05:58:44.754Z,142.85
2023-04-02T05:59:41.011Z,142.99
2023-04-02T06:00:41.018Z,143.71
2023-04-02T06:01:40.995Z,143.99
2023-04-02T06:02:41.065Z,143.95
2023-04-02T06:03:41.100Z,144.89
2023-04-02T06:04:41.000Z,144.92
2023-04-02T06:05:40.950Z,144.78
2023-04-02T06:06:40.952Z,145.24
2023-04-02T06:07:40.962Z,143.92
2023-04-02T06:08:40.963Z,143.78
2023-04-02T06:09:40.948Z,145.13
2023-04-02T06:10:40.936Z,144.37
2023-04-02T06:11:40.938Z,143.96
2023-04-02T06:12:40.935Z,146.33
2023-04-02T06:13:40.910Z,144.27
2023-04-02T06:14:40.890Z,143.91
2023-04-02T06:15:40.907Z,145.20
2023-04-02T06:16:40.900Z,143.75
2023-04-02T06:17:40.942Z,142.79
2023-04-02T06:18:40.910Z,146.21
2023-04-02T06:19:40.929Z,146.40
2023-04-02T06:20:40.960Z,144.97
2023-04-02T06:21:41.047Z,145.29
2023-04-02T06:22:41.064Z,144.31
2023-04-02T06:23:41.111Z,146.65
2023-04-02T06:24:41.183Z,145.14
2023-04-02T06:25:41.269Z,145.42
2023-04-02T06:26:41.290Z,145.64
2023-04-02T06:27:41.303Z,144.31
2023-04-02T06:28:41.351Z,145.63
2023-04-02T06:29:41.362Z,144.08
2023-04-02T06:30:41.446Z,145.73
2023-04-02T06:31:41.434Z,146.48
2023-04-02T06:32:41.473Z,146.82
2023-04-02T06:33:41.494Z,145.60
2023-04-02T06:34:41.498Z,146.55
2023-04-02T06:35:41.615Z,143.87
2023-04-02T06:36:41.606Z,145.54
2023-04-02T06:37:41.609Z,145.17
2023-04-02T06:38:41.636Z,145.47
2023-04-02T06:39:41.662Z,145.62
2023-04-02T06:40:41.680Z,145.49
2023-04-02T06:41:41.687Z,146.97
2023-04-02T06:42:41.726Z,146.59
2023-04-02T06:43:41.774Z,144.80
2023-04-02T06:44:41.790Z,146.29
2023-04-02T06:45:41.842Z,145.53
2023-04-02T06:46:41.855Z,144.45
2023-04-02T06:47:41.898Z,146.81
2023-04-02T06:48:41.898Z,146.81
2023-04-02T06:49:41.918Z,146.10
2023-04-02T06:50:41.963Z,149.09
2023-04-02T06:51:41.938Z,147.66
2023-04-02T06:52:41.986Z,147.49
2023-04-02T06:53:42.017Z,147.76
2023-04-02T06:54:42.027Z,146.63
2023-04-02T06:55:42.047Z,147.68
2023-04-02T06:56:42.100Z,147.72
2023-04-02T06:57:43.057Z,147.51
2023-04-02T06:58:42.085Z,147.76
2023-04-02T06:59:42.149Z,147.99
2023-04-02T07:00:42.159Z,148.05
2023-04-02T07:01:42.196Z,147.83
2023-04-02T07:02:42.186Z,147.47
2023-04-02T07:03:42.179Z,146.93
2023-04-02T07:04:42.287Z,147.27
2023-04-02T07:05:43.124Z,146.46
2023-04-02T07:06:42.256Z,147.39
2023-04-02T07:07:42.294Z,146.53
2023-04-02T07:08:42.323Z,147.97
2023-04-02T07:09:42.357Z,147.36
2023-04-02T07:10:42.347Z,148.52
2023-04-02T07:11:42.348Z,148.11
2023-04-02T07:12:42.396Z,146.84
2023-04-02T07:13:42.421Z,147.43
2023-04-02T07:14:42.433Z,147.66
2023-04-02T07:15:42.500Z,146.47
2023-04-02T07:16:42.481Z,148.27
2023-04-02T07:17:42.513Z,146.74
2023-04-02T07:18:42.516Z,147.49
2023-04-02T07:19:42.554Z,145.98
2023-04-02T07:20:42.548Z,148.96
2023-04-02T07:21:42.570Z,147.19
2023-04-02T07:22:42.588Z,147.92
2023-04-02T07:23:42.649Z,147.24
2023-04-02T07:24:42.659Z,146.50
2023-04-02T07:25:42.683Z,145.97
2023-04-02T07:26:42.675Z,144.88
2023-04-02T07:27:42.704Z,146.53
2023-04-02T07:28:42.750Z,147.22
2023-04-02T07:29:42.855Z,145.54
2023-04-02T07:30:42.765Z,149.17
2023-04-02T07:31:42.856Z,148.82
2023-04-02T07:32:42.841Z,149.47
2023-04-02T07:33:42.818Z,148.85
2023-04-02T07:34:42.846Z,148.91
2023-04-02T07:35:42.887Z,149.32
2023-04-02T07:36:42.892Z,148.78
2023-04-02T07:37:42.946Z,147.99
2023-04-02T07:38:42.924Z,146.16
2023-04-02T07:39:42.982Z,145.97
2023-04-02T07:40:42.989Z,146.71
2023-04-02T07:41:43.013Z,144.54
2023-04-02T07:42:43.042Z,144.38
2023-04-02T07:43:43.031Z,145.24
2023-04-02T07:44:43.066Z,147.31
2023-04-02T07:45:43.056Z,145.44
2023-04-02T07:46:43.129Z,145.54
2023-04-02T07:47:43.162Z,145.32
2023-04-02T07:48:43.126Z,143.76
2023-04-02T07:49:43.152Z,146.21
2023-04-02T07:50:43.147Z,144.62
2023-04-02T07:51:43.164Z,146.65
2023-04-02T07:52:43.197Z,147.56
2023-04-02T07:53:43.189Z,149.93
2023-04-02T07:54:43.213Z,147.70
2023-04-02T07:55:43.237Z,148.54
2023-04-02T07:56:43.274Z,148.43
2023-04-02T07:57:46.433Z,147.98
2023-04-02T07:58:43.245Z,149.65
2023-04-02T07:59:43.259Z,146.77
2023-04-02T08:00:43.237Z,146.64
2023-04-02T08:01:43.393Z,146.24
2023-04-02T08:02:43.260Z,144.57
2023-04-02T08:03:43.285Z,147.32
2023-04-02T08:04:43.221Z,147.14
2023-04-02T08:05:43.228Z,148.92
2023-04-02T08:06:43.210Z,148.48
2023-04-02T08:07:43.194Z,148.33
2023-04-02T08:08:43.211Z,149.62
2023-04-02T08:09:43.180Z,151.47
2023-04-02T08:10:43.245Z,150.42
2023-04-02T08:11:43.167Z,151.40
2023-04-02T08:12:43.171Z,149.00
2023-04-02T08:13:43.205Z,149.31
2023-04-02T08:14:43.147Z,149.42
2023-04-02T08:15:43.130Z,149.38
2023-04-02T08:16:43.210Z,149.79
2023-04-02T08:17:43.224Z,146.65
2023-04-02T08:18:43.118Z,148.60
2023-04-02T08:19:54.225Z,148.95
2023-04-02T08:20:44.108Z,149.41
2023-04-02T08:21:43.117Z,149.98
2023-04-02T08:22:43.088Z,150.13
2023-04-02T08:23:43.092Z,149.30
2023-04-02T08:24:43.062Z,150.22
2023-04-02T08:25:43.070Z,148.51
2023-04-02T08:26:45.059Z,146.43
2023-04-02T08:27:43.075Z,147.00
2023-04-02T08:28:43.089Z,148.34
2023-04-02T08:29:43.099Z,147.26
2023-04-02T08:30:43.138Z,145.74
2023-04-02T08:31:43.135Z,150.21
2023-04-02T08:32:43.194Z,148.86
2023-04-02T08:33:43.173Z,148.37
2023-04-02T08:34:43.145Z,149.05
2023-04-02T08:35:43.184Z,148.37
2023-04-02T08:36:43.194Z,149.64
2023-04-02T08:37:43.208Z,146.27
2023-04-02T08:38:43.241Z,146.58
2023-04-02T08:39:43.175Z,147.06
2023-04-02T08:40:43.228Z,141.86
2023-04-02T08:41:43.203Z,145.74
2023-04-02T08:42:43.217Z,148.02
2023-04-02T08:43:44.157Z,142.12
2023-04-02T08:44:43.307Z,143.79
2023-04-02T08:45:43.428Z,140.33
2023-04-02T08:46:43.266Z,140.17
2023-04-02T08:47:43.378Z,137.28
2023-04-02T08:48:43.337Z,135.69
2023-04-02T08:49:43.286Z,134.82
2023-04-02T08:50:43.323Z,138.30
2023-04-02T08:51:43.284Z,136.37
2023-04-02T08:52:43.283Z,134.65
2023-04-02T08:53:43.290Z,135.66
2023-04-02T08:54:43.313Z,135.86
2023-04-02T08:55:43.331Z,135.88
2023-04-02T08:56:43.323Z,134.35
2023-04-02T08:57:43.304Z,132.16
2023-04-02T08:58:43.355Z,138.74
2023-04-02T08:59:43.309Z,135.97
2023-04-02T09:00:43.307Z,133.60
2023-04-02T09:01:43.372Z,136.81
2023-04-02T09:02:43.376Z,132.51
2023-04-02T09:03:43.343Z,132.36
2023-04-02T09:04:43.385Z,135.48
2023-04-02T09:05:43.343Z,137.51
2023-04-02T09:06:43.323Z,135.63
2023-04-02T09:07:43.369Z,135.17
2023-04-02T09:08:43.365Z,136.71
2023-04-02T09:09:43.332Z,140.43
2023-04-02T09:10:43.351Z,135.32
2023-04-02T09:11:43.332Z,134.85
2023-04-02T09:12:43.334Z,134.15
2023-04-02T09:13:43.381Z,135.96
2023-04-02T09:14:43.367Z,135.31
2023-04-02T09:15:43.388Z,135.74
2023-04-02T09:16:43.376Z,133.45
2023-04-02T09:17:53.649Z,133.07
2023-04-02T09:18:44.392Z,133.20
2023-04-02T09:19:43.369Z,133.49
2023-04-02T09:20:43.361Z,133.86
2023-04-02T09:21:43.354Z,133.45
2023-04-02T09:22:43.358Z,132.39
2023-04-02T09:23:43.335Z,130.78
2023-04-02T09:24:43.318Z,130.23
2023-04-02T09:25:43.401Z,132.70
2023-04-02T09:26:43.345Z,131.87
2023-04-02T09:27:43.329Z,133.23
2023-04-02T09:28:43.301Z,134.18
2023-04-02T09:29:43.304Z,132.45
2023-04-02T09:30:43.310Z,136.57
2023-04-02T09:31:43.359Z,136.07
2023-04-02T09:32:43.310Z,133.43
2023-04-02T09:33:43.260Z,133.87
2023-04-02T09:34:43.281Z,134.81
2023-04-02T09:35:43.410Z,132.35
2023-04-02T09:36:43.220Z,131.69
2023-04-02T09:37:43.233Z,130.82
2023-04-02T09:38:43.248Z,133.42
2023-04-02T09:39:43.216Z,127.59
2023-04-02T09:40:43.231Z,130.35
2023-04-02T09:41:43.800Z,130.83
2023-04-02T09:42:43.234Z,128.67
2023-04-02T09:43:43.205Z,131.55
2023-04-02T09:44:43.177Z,131.10
2023-04-02T09:45:43.199Z,130.84
2023-04-02T09:46:43.200Z,131.59
2023-04-02T09:47:43.208Z,124.56
2023-04-02T09:48:43.167Z,129.44
2023-04-02T09:49:43.171Z,126.93
2023-04-02T09:50:43.160Z,125.74
2023-04-02T09:51:43.158Z,125.15
2023-04-02T09:52:43.116Z,124.93
2023-04-02T09:53:43.145Z,127.20
2023-04-02T09:54:43.144Z,128.17
2023-04-02T09:55:43.112Z,129.67
2023-04-02T09:56:43.095Z,121.76
2023-04-02T09:57:43.127Z,121.29
2023-04-02T09:58:43.143Z,122.45
2023-04-02T09:59:43.071Z,119.34
2023-04-02T10:00:43.220Z,119.58
2023-04-02T10:01:43.154Z,120.30
2023-04-02T10:02:43.146Z,121.15
2023-04-02T10:03:43.102Z,118.33
2023-04-02T10:04:43.187Z,117.96
2023-04-02T10:05:43.275Z,121.40
2023-04-02T10:06:43.148Z,119.51
2023-04-02T10:07:43.121Z,117.27
2023-04-02T10:08:43.111Z,114.14
2023-04-02T10:09:43.125Z,110.52
2023-04-02T10:10:43.141Z,106.88
2023-04-02T10:11:46.616Z,108.40
2023-04-02T10:12:43.131Z,109.29
2023-04-02T10:13:43.153Z,111.55
2023-04-02T10:14:43.124Z,112.79
2023-04-02T10:15:43.141Z,110.32
2023-04-02T10:16:43.227Z,113.00
2023-04-02T10:17:43.128Z,111.56
2023-04-02T10:18:43.116Z,112.59
2023-04-02T10:19:43.096Z,109.19
2023-04-02T10:20:50.863Z,113.71
2023-04-02T10:21:44.109Z,114.12
2023-04-02T10:22:43.090Z,114.46
2023-04-02T10:23:43.103Z,115.95
2023-04-02T10:24:43.068Z,114.99
2023-04-02T10:25:43.082Z,113.66
2023-04-02T10:26:43.082Z,111.31
2023-04-02T10:27:43.040Z,113.44
2023-04-02T10:28:43.088Z,113.85
2023-04-02T10:29:43.013Z,110.34
2023-04-02T10:30:43.058Z,110.58
2023-04-02T10:31:43.007Z,109.98
2023-04-02T10:32:43.059Z,110.30
2023-04-02T10:33:43.001Z,114.16
2023-04-02T10:34:43.285Z,114.05
2023-04-02T10:35:43.001Z,110.80
2023-04-02T10:36:42.997Z,109.16
2023-04-02T10:37:42.992Z,103.17
2023-04-02T10:38:42.966Z,100.84
2023-04-02T10:39:43.685Z,94.64
2023-04-02T10:40:42.940Z,90.86
2023-04-02T10:41:42.945Z,88.11
2023-04-02T10:42:42.932Z,87.74
2023-04-02T10:43:42.930Z,89.54
2023-04-02T10:44:42.946Z,90.86
2023-04-02T10:45:42.945Z,95.35
2023-04-02T10:46:42.933Z,91.77
2023-04-02T10:47:42.934Z,100.07
2023-04-02T10:48:42.923Z,101.66
2023-04-02T10:49:42.954Z,102.30
2023-04-02T10:50:42.871Z,102.13
2023-04-02T10:51:42.879Z,102.37
2023-04-02T10:52:42.862Z,103.98
2023-04-02T10:53:42.871Z,104.54
2023-04-02T10:54:42.883Z,104.07
2023-04-02T10:55:42.889Z,104.17
2023-04-02T10:56:50.737Z,105.50
2023-04-02T10:57:43.867Z,105.63
2023-04-02T10:58:42.893Z,106.23
2023-04-02T10:59:42.864Z,106.22
2023-04-02T11:00:42.867Z,101.87
2023-04-02T11:01:42.945Z,107.60
2023-04-02T11:02:42.959Z,105.15
2023-04-02T11:03:42.960Z,109.74
2023-04-02T11:04:42.818Z,108.22
2023-04-02T11:05:42.797Z,106.64
2023-04-02T11:06:42.817Z,108.91
2023-04-02T11:07:42.796Z,110.93
2023-04-02T11:08:42.820Z,105.76
2023-04-02T11:09:42.869Z,104.30
2023-04-02T11:10:42.772Z,108.02
2023-04-02T11:11:42.776Z,102.25
2023-04-02T11:12:42.781Z,104.17
2023-04-02T11:13:42.770Z,105.06
2023-04-02T11:14:42.787Z,107.57
2023-04-02T11:15:42.748Z,103.98
2023-04-02T11:16:44.582Z,106.92
2023-04-02T11:17:42.784Z,108.44
2023-04-02T11:18:42.733Z,107.59
2023-04-02T11:19:42.721Z,101.44
2023-04-02T11:20:42.739Z,103.28
2023-04-02T11:21:54.851Z,98.29
2023-04-02T11:22:43.719Z,98.45
2023-04-02T11:23:42.697Z,99.30
2023-04-02T11:24:42.672Z,98.43
2023-04-02T11:25:42.696Z,98.54
2023-04-02T11:26:42.684Z,101.66
2023-04-02T11:27:42.689Z,104.79
2023-04-02T11:28:42.670Z,102.77
2023-04-02T11:29:42.694Z,99.49
2023-04-02T11:30:42.652Z,99.79
2023-04-02T11:31:42.794Z,99.48
2023-04-02T11:32:42.764Z,97.87
2023-04-02T11:33:45.410Z,95.96
2023-04-02T11:34:42.632Z,96.25
2023-04-02T11:35:42.634Z,97.17
2023-04-02T11:36:42.625Z,97.61
2023-04-02T11:37:42.678Z,99.73
2023-04-02T11:38:42.607Z,97.83
2023-04-02T11:39:42.578Z,95.03
2023-04-02T11:40:42.570Z,91.86
2023-04-02T11:41:42.590Z,92.95
2023-04-02T11:42:42.606Z,95.35
2023-04-02T11:43:42.579Z,97.94
2023-04-02T11:44:42.557Z,95.50
2023-04-02T11:45:51.982Z,96.04
2023-04-02T11:46:43.562Z,96.41
2023-04-02T11:47:42.625Z,97.41
2023-04-02T11:48:42.520Z,97.70
2023-04-02T11:49:42.534Z,100.57
2023-04-02T11:50:42.528Z,102.81
2023-04-02T11:51:42.519Z,101.03
2023-04-02T11:52:42.503Z,98.47
2023-04-02T11:53:42.487Z,96.63
2023-04-02T11:54:42.494Z,92.68
2023-04-02T11:55:42.508Z,91.91
2023-04-02T11:56:42.509Z,94.41
2023-04-02T11:57:42.530Z,91.43
2023-04-02T11:58:42.488Z,85.34
2023-04-02T11:59:42.452Z,87.29
2023-04-02T12:00:42.445Z,86.65
2023-04-02T12:01:42.483Z,90.28
2023-04-02T12:02:42.652Z,93.53
2023-04-02T12:03:42.476Z,91.29
2023-04-02T12:04:42.429Z,87.78
2023-04-02T12:05:42.456Z,85.77
2023-04-02T12:06:42.480Z,84.67
2023-04-02T12:07:42.413Z,86.47
2023-04-02T12:08:50.884Z,84.22
2023-04-02T12:09:43.412Z,84.37
2023-04-02T12:10:42.373Z,84.24
2023-04-02T12:11:42.400Z,85.40
2023-04-02T12:12:42.391Z,89.00
2023-04-02T12:13:42.363Z,89.05
2023-04-02T12:14:42.350Z,90.28
2023-04-02T12:15:42.346Z,93.33
2023-04-02T12:16:42.373Z,94.48
2023-04-02T12:17:42.363Z,94.42
2023-04-02T12:18:42.343Z,97.03
2023-04-02T12:19:42.339Z,96.69
2023-04-02T12:20:42.326Z,90.12
2023-04-02T12:21:42.330Z,93.86
2023-04-02T12:22:42.300Z,95.35
2023-04-02T12:23:42.288Z,97.10
2023-04-02T12:24:42.282Z,98.58
2023-04-02T12:25:42.255Z,97.72
2023-04-02T12:26:42.312Z,93.01
2023-04-02T12:27:42.259Z,93.90
2023-04-02T12:28:42.273Z,93.85
2023-04-02T12:29:42.258Z,93.43
2023-04-02T12:30:42.299Z,96.58